createdAt,value
2018-04-12T00:00:18.874Z,97.31
2018-04-12T00:01:18.800Z,97.79
2018-04-12T00:02:18.720Z,97.79
2018-04-12T00:03:18.678Z,97.79
2018-04-12T00:04:18.562Z,97.50
2018-04-12T00:05:18.486Z,98.08
2018-04-12T00:06:18.407Z,97.60
2018-04-12T00:07:18.330Z,97.69
2018-04-12T00:08:18.292Z,97.69
2018-04-12T00:09:18.170Z,97.69
2018-04-12T00:10:18.094Z,97.88
2018-04-12T00:11:18.055Z,97.50
2018-04-12T00:12:17.936Z,97.41
2018-04-12T00:13:17.863Z,97.22
2018-04-12T00:14:17.781Z,97.60
2018-04-12T00:15:17.703Z,97.13
2018-04-12T00:16:17.628Z,96.94
2018-04-12T00:17:17.547Z,96.84
2018-04-12T00:18:17.465Z,97.31
2018-04-12T00:19:17.390Z,97.60
2018-04-12T00:20:17.309Z,97.22
2018-04-12T00:21:17.232Z,96.94
2018-04-12T00:22:17.153Z,96.41
2018-04-12T00:23:17.079Z,97.31
2018-04-12T00:24:16.995Z,96.84
2018-04-12T00:25:16.918Z,97.17
2018-04-12T00:26:16.840Z,96.79
2018-04-12T00:27:16.760Z,97.36
2018-04-12T00:28:16.682Z,97.08
2018-04-12T00:29:16.605Z,96.98
2018-04-12T00:30:16.543Z,97.55
2018-04-12T00:31:16.446Z,97.36
2018-04-12T00:32:16.408Z,97.83
2018-04-12T00:33:16.289Z,97.17
2018-04-12T00:34:16.209Z,97.93
2018-04-12T00:35:16.134Z,98.03
2018-04-12T00:36:16.051Z,97.93
2018-04-12T00:37:15.983Z,97.83
2018-04-12T00:38:15.936Z,97.08
2018-04-12T00:39:15.817Z,97.45
2018-04-12T00:40:15.744Z,97.36
2018-04-12T00:41:15.661Z,97.17
2018-04-12T00:42:15.590Z,97.93
2018-04-12T00:43:15.511Z,97.74
2018-04-12T00:44:15.426Z,98.22
2018-04-12T00:45:15.345Z,98.22
2018-04-12T00:46:15.267Z,97.36
2018-04-12T00:47:15.190Z,96.98
2018-04-12T00:48:15.173Z,97.08
2018-04-12T00:49:15.048Z,97.45
2018-04-12T00:50:14.953Z,96.98
2018-04-12T00:51:14.876Z,96.98
2018-04-12T00:52:14.795Z,96.98
2018-04-12T00:53:14.718Z,97.17
2018-04-12T00:54:14.639Z,96.98
2018-04-12T00:55:14.566Z,97.83
2018-04-12T00:56:14.481Z,97.55
2018-04-12T00:57:14.401Z,97.83
2018-04-12T00:58:14.450Z,97.88
2018-04-12T00:59:14.242Z,98.07
2018-04-12T01:00:14.166Z,97.69
2018-04-12T01:01:14.090Z,98.17
2018-04-12T01:02:14.010Z,98.17
2018-04-12T01:03:13.932Z,98.36
2018-04-12T01:04:13.851Z,98.17
2018-04-12T01:05:13.778Z,98.93
2018-04-12T01:06:13.695Z,98.83
2018-04-12T01:07:13.623Z,98.64
2018-04-12T01:08:13.556Z,98.55
2018-04-12T01:09:13.458Z,98.83
2018-04-12T01:10:13.380Z,98.45
2018-04-12T01:11:13.301Z,98.45
2018-04-12T01:12:13.215Z,98.45
2018-04-12T01:13:13.146Z,98.83
2018-04-12T01:14:13.079Z,98.74
2018-04-12T01:15:12.985Z,98.83
2018-04-12T01:16:12.906Z,98.64
2018-04-12T01:17:12.829Z,98.55
2018-04-12T01:18:12.750Z,98.64
2018-04-12T01:19:12.669Z,98.45
2018-04-12T01:20:12.591Z,99.21
2018-04-12T01:21:12.511Z,99.40
2018-04-12T01:22:12.433Z,99.30
2018-04-12T01:23:12.358Z,98.83
2018-04-12T01:24:12.275Z,99.02
2018-04-12T01:25:12.214Z,99.02
2018-04-12T01:26:12.115Z,98.83
2018-04-12T01:27:12.036Z,99.40
2018-04-12T01:28:11.979Z,99.50
2018-04-12T01:29:11.938Z,98.83
2018-04-12T01:30:11.799Z,98.93
2018-04-12T01:31:11.720Z,99.02
2018-04-12T01:32:11.646Z,99.30
2018-04-12T01:33:11.562Z,99.21
2018-04-12T01:34:11.492Z,99.30
2018-04-12T01:35:11.413Z,98.83
2018-04-12T01:36:11.325Z,98.83
2018-04-12T01:37:11.247Z,98.74
2018-04-12T01:38:11.167Z,98.55
2018-04-12T01:39:11.086Z,98.55
2018-04-12T01:40:11.008Z,98.83
2018-04-12T01:41:10.937Z,98.45
2018-04-12T01:42:10.851Z,98.07
2018-04-12T01:43:10.771Z,98.64
2018-04-12T01:44:10.691Z,98.64
2018-04-12T01:45:10.630Z,98.07
2018-04-12T01:46:10.533Z,98.17
2018-04-12T01:47:10.453Z,98.26
2018-04-12T01:48:10.371Z,98.26
2018-04-12T01:49:10.295Z,98.55
2018-04-12T01:50:10.219Z,98.26
2018-04-12T01:51:10.135Z,98.64
2018-04-12T01:52:10.056Z,98.45
2018-04-12T01:53:09.981Z,98.55
2018-04-12T01:54:09.896Z,98.31
2018-04-12T01:55:09.824Z,98.50
2018-04-12T01:56:09.768Z,98.55
2018-04-12T01:57:09.665Z,98.83
2018-04-12T01:58:09.583Z,99.02
2018-04-12T01:59:09.502Z,98.88
2018-04-12T02:00:09.441Z,99.07
2018-04-12T02:01:09.344Z,99.26
2018-04-12T02:02:09.267Z,99.35
2018-04-12T02:03:09.196Z,99.35
2018-04-12T02:04:09.102Z,99.16
2018-04-12T02:05:09.055Z,99.35
2018-04-12T02:06:08.951Z,99.35
2018-04-12T02:07:08.948Z,99.44
2018-04-12T02:08:08.831Z,99.35
2018-04-12T02:09:08.711Z,99.26
2018-04-12T02:10:08.644Z,99.16
2018-04-12T02:11:08.550Z,98.97
2018-04-12T02:12:08.474Z,98.79
2018-04-12T02:13:08.393Z,99.26
2018-04-12T02:14:08.313Z,99.35
2018-04-12T02:15:08.235Z,99.54
2018-04-12T02:16:08.155Z,99.99
2018-04-12T02:17:08.090Z,99.73
2018-04-12T02:18:08.001Z,99.83
2018-04-12T02:19:07.944Z,99.64
2018-04-12T02:20:07.838Z,99.54
2018-04-12T02:21:07.757Z,99.73
2018-04-12T02:22:07.679Z,99.92
2018-04-12T02:23:07.598Z,99.99
2018-04-12T02:24:07.520Z,99.54
2018-04-12T02:25:07.440Z,99.35
2018-04-12T02:26:07.360Z,98.88
2018-04-12T02:27:07.284Z,98.79
2018-04-12T02:28:07.247Z,99.54
2018-04-12T02:29:07.145Z,99.35
2018-04-12T02:30:07.051Z,99.44
2018-04-12T02:31:06.962Z,99.44
2018-04-12T02:32:06.884Z,99.35
2018-04-12T02:33:06.806Z,99.35
2018-04-12T02:34:06.725Z,99.44
2018-04-12T02:35:06.683Z,99.54
2018-04-12T02:36:06.565Z,99.16
2018-04-12T02:37:06.511Z,99.07
2018-04-12T02:38:06.410Z,99.07
2018-04-12T02:39:06.325Z,99.35
2018-04-12T02:40:06.249Z,99.35
2018-04-12T02:41:06.170Z,99.16
2018-04-12T02:42:06.091Z,99.44
2018-04-12T02:43:06.009Z,99.92
2018-04-12T02:44:05.944Z,99.73
2018-04-12T02:45:05.844Z,99.83
2018-04-12T02:46:05.772Z,99.92
2018-04-12T02:47:05.692Z,99.54
2018-04-12T02:48:05.655Z,99.92
2018-04-12T02:49:05.536Z,99.83
2018-04-12T02:50:05.453Z,99.73
2018-04-12T02:51:05.374Z,99.83
2018-04-12T02:52:05.295Z,99.64
2018-04-12T02:53:05.219Z,99.92
2018-04-12T02:54:05.138Z,99.83
2018-04-12T02:55:05.089Z,99.99
2018-04-12T02:56:04.989Z,99.99
2018-04-12T02:57:04.901Z,99.92
2018-04-12T02:58:04.816Z,99.99
2018-04-12T02:59:04.746Z,99.99
2018-04-12T03:00:04.658Z,99.99
2018-04-12T03:01:04.581Z,99.99
2018-04-12T03:02:04.499Z,99.99
2018-04-12T03:03:04.417Z,99.99
2018-04-12T03:04:04.341Z,99.99
2018-04-12T03:05:04.260Z,99.99
2018-04-12T03:06:04.180Z,99.99
2018-04-12T03:07:04.101Z,99.99
2018-04-12T03:08:04.021Z,99.99
2018-04-12T03:09:03.943Z,99.99
2018-04-12T03:10:03.863Z,99.99
2018-04-12T03:11:03.782Z,99.99
2018-04-12T03:12:03.704Z,99.99
2018-04-12T03:13:03.624Z,99.99
2018-04-12T03:14:03.544Z,99.99
2018-04-12T03:15:03.463Z,99.99
2018-04-12T03:16:03.429Z,99.99
2018-04-12T03:17:03.308Z,99.99
2018-04-12T03:18:03.228Z,99.99
2018-04-12T03:19:03.146Z,99.99
2018-04-12T03:20:03.086Z,99.99
2018-04-12T03:21:02.992Z,99.99
2018-04-12T03:22:02.906Z,99.99
2018-04-12T03:23:02.829Z,99.99
2018-04-12T03:24:02.768Z,99.99
2018-04-12T03:25:02.678Z,99.99
2018-04-12T03:26:02.587Z,99.99
2018-04-12T03:27:02.515Z,99.99
2018-04-12T03:28:02.431Z,99.99
2018-04-12T03:29:02.350Z,99.99
2018-04-12T03:30:02.275Z,99.99
2018-04-12T03:31:02.198Z,99.99
2018-04-12T03:32:02.113Z,99.99
2018-04-12T03:33:02.035Z,99.99
2018-04-12T03:34:01.956Z,99.99
2018-04-12T03:35:01.874Z,99.99
2018-04-12T03:36:01.802Z,99.99
2018-04-12T03:37:01.716Z,99.99
2018-04-12T03:38:01.637Z,99.99
2018-04-12T03:39:01.556Z,99.99
2018-04-12T03:40:01.479Z,99.99
2018-04-12T03:41:01.397Z,99.99
2018-04-12T03:42:01.325Z,99.99
2018-04-12T03:43:01.248Z,99.99
2018-04-12T03:44:01.160Z,99.99
2018-04-12T03:45:01.081Z,99.99
2018-04-12T03:46:01.000Z,99.99
2018-04-12T03:47:00.923Z,99.99
2018-04-12T03:48:00.846Z,99.99
2018-04-12T03:49:00.822Z,99.99
2018-04-12T03:50:00.696Z,99.99
2018-04-12T03:51:00.605Z,99.99
2018-04-12T03:52:00.527Z,99.99
2018-04-12T03:53:00.479Z,99.99
2018-04-12T03:54:00.367Z,99.99
2018-04-12T03:55:00.287Z,99.99
2018-04-12T03:56:00.212Z,99.99
2018-04-12T03:57:00.130Z,99.99
2018-04-12T03:58:00.052Z,99.99
2018-04-12T03:59:00.004Z,99.99
2018-04-12T03:59:59.892Z,99.99
2018-04-12T04:00:59.814Z,99.99
2018-04-12T04:01:59.738Z,99.99
2018-04-12T04:02:59.656Z,99.99
2018-04-12T04:03:59.580Z,99.99
2018-04-12T04:04:59.496Z,99.99
2018-04-12T04:05:59.418Z,99.99
2018-04-12T04:06:59.338Z,99.99
2018-04-12T04:07:59.259Z,99.99
2018-04-12T04:08:59.179Z,99.99
2018-04-12T04:09:59.106Z,99.99
2018-04-12T04:10:59.021Z,99.99
2018-04-12T04:11:58.944Z,99.99
2018-04-12T04:12:58.864Z,99.99
2018-04-12T04:13:58.783Z,99.99
2018-04-12T04:14:58.705Z,99.99
2018-04-12T04:15:58.625Z,99.99
2018-04-12T04:16:58.563Z,99.99
2018-04-12T04:17:58.468Z,99.99
2018-04-12T04:18:58.402Z,99.99
2018-04-12T04:19:58.316Z,99.99
2018-04-12T04:20:58.230Z,99.99
2018-04-12T04:21:58.152Z,99.99
2018-04-12T04:22:58.071Z,99.99
2018-04-12T04:23:57.996Z,99.99
2018-04-12T04:24:57.917Z,99.99
2018-04-12T04:25:57.836Z,99.99
2018-04-12T04:26:57.757Z,99.99
2018-04-12T04:27:57.724Z,99.99
2018-04-12T04:28:57.602Z,99.99
2018-04-12T04:29:57.517Z,99.99
2018-04-12T04:30:57.439Z,99.99
2018-04-12T04:31:57.363Z,99.99
2018-04-12T04:32:57.281Z,99.99
2018-04-12T04:33:57.203Z,99.99
2018-04-12T04:34:57.123Z,99.99
2018-04-12T04:35:57.044Z,99.99
2018-04-12T04:36:56.965Z,99.99
2018-04-12T04:37:56.891Z,99.99
2018-04-12T04:38:56.806Z,99.99
2018-04-12T04:39:56.802Z,99.99
2018-04-12T04:40:56.651Z,99.99
2018-04-12T04:41:56.578Z,99.99
2018-04-12T04:42:56.492Z,99.99
2018-04-12T04:43:56.414Z,99.99
2018-04-12T04:44:56.333Z,99.99
2018-04-12T04:45:56.259Z,99.99
2018-04-12T04:46:56.172Z,99.99
2018-04-12T04:47:56.098Z,99.99
2018-04-12T04:48:56.018Z,99.99
2018-04-12T04:49:55.938Z,99.99
2018-04-12T04:50:55.883Z,99.99
2018-04-12T04:51:55.777Z,99.99
2018-04-12T04:52:55.722Z,99.99
2018-04-12T04:53:55.624Z,99.99
2018-04-12T04:54:55.588Z,99.99
2018-04-12T04:55:55.491Z,99.99
2018-04-12T04:56:55.410Z,99.99
2018-04-12T04:57:55.303Z,99.99
2018-04-12T04:58:55.226Z,99.99
2018-04-12T04:59:55.181Z,99.99
2018-04-12T05:00:55.067Z,99.99
2018-04-12T05:01:54.987Z,99.99
2018-04-12T05:02:54.912Z,99.99
2018-04-12T05:03:54.831Z,99.99
2018-04-12T05:04:54.782Z,99.99
2018-04-12T05:05:54.675Z,99.99
2018-04-12T05:06:54.592Z,99.99
2018-04-12T05:07:54.515Z,99.99
2018-04-12T05:08:54.436Z,99.99
2018-04-12T05:09:54.352Z,99.99
2018-04-12T05:10:54.276Z,99.99
2018-04-12T05:11:54.219Z,99.99
2018-04-12T05:12:54.117Z,99.99
2018-04-12T05:13:54.040Z,99.99
2018-04-12T05:14:53.962Z,99.99
2018-04-12T05:15:53.884Z,99.99
2018-04-12T05:16:53.803Z,99.99
2018-04-12T05:17:53.726Z,99.99
2018-04-12T05:18:53.645Z,99.99
2018-04-12T05:19:53.581Z,99.99
2018-04-12T05:20:53.488Z,99.99
2018-04-12T05:21:53.409Z,99.99
2018-04-12T05:22:53.329Z,99.99
2018-04-12T05:23:53.257Z,99.99
2018-04-12T05:24:53.170Z,99.99
2018-04-12T05:25:53.103Z,99.99
2018-04-12T05:26:53.021Z,99.99
2018-04-12T05:27:52.952Z,99.99
2018-04-12T05:28:52.856Z,99.99
2018-04-12T05:29:52.779Z,99.99
2018-04-12T05:30:52.698Z,99.99
2018-04-12T05:31:52.625Z,99.99
2018-04-12T05:32:52.540Z,99.88
2018-04-12T05:33:52.478Z,99.78
2018-04-12T05:34:52.428Z,99.99
2018-04-12T05:35:52.302Z,99.99
2018-04-12T05:36:52.227Z,99.97
2018-04-12T05:37:52.149Z,99.99
2018-04-12T05:38:52.066Z,99.99
2018-04-12T05:39:51.989Z,99.97
2018-04-12T05:40:51.918Z,99.97
2018-04-12T05:41:51.834Z,99.78
2018-04-12T05:42:51.755Z,99.99
2018-04-12T05:43:51.676Z,99.99
2018-04-12T05:44:51.646Z,99.99
2018-04-12T05:45:51.517Z,99.99
2018-04-12T05:46:51.436Z,99.99
2018-04-12T05:47:51.359Z,99.69
2018-04-12T05:48:51.279Z,99.50
2018-04-12T05:49:51.206Z,99.59
2018-04-12T05:50:51.121Z,99.64
2018-04-12T05:51:51.043Z,99.93
2018-04-12T05:52:50.985Z,99.64
2018-04-12T05:53:50.886Z,99.16
2018-04-12T05:54:50.812Z,99.26
2018-04-12T05:55:50.729Z,99.26
2018-04-12T05:56:50.649Z,99.55
2018-04-12T05:57:50.573Z,99.26
2018-04-12T05:58:50.494Z,99.07
2018-04-12T05:59:50.472Z,99.64
2018-04-12T06:00:50.366Z,99.74
2018-04-12T06:01:50.259Z,99.07
2018-04-12T06:02:50.178Z,98.31
2018-04-12T06:03:50.106Z,98.50
2018-04-12T06:04:50.020Z,98.41
2018-04-12T06:05:49.940Z,98.03
2018-04-12T06:06:49.863Z,98.31
2018-04-12T06:07:49.788Z,98.50
2018-04-12T06:08:49.707Z,98.79
2018-04-12T06:09:49.630Z,98.69
2018-04-12T06:10:49.548Z,98.50
2018-04-12T06:11:49.470Z,98.50
2018-04-12T06:12:49.394Z,97.93
2018-04-12T06:13:49.316Z,97.17
2018-04-12T06:14:49.238Z,97.79
2018-04-12T06:15:49.159Z,96.98
2018-04-12T06:16:49.075Z,97.64
2018-04-12T06:17:49.001Z,97.93
2018-04-12T06:18:48.947Z,97.93
2018-04-12T06:19:48.845Z,98.03
2018-04-12T06:20:48.767Z,97.74
2018-04-12T06:21:48.690Z,98.03
2018-04-12T06:22:48.611Z,97.83
2018-04-12T06:23:48.528Z,97.93
2018-04-12T06:24:48.456Z,98.12
2018-04-12T06:25:48.419Z,98.22
2018-04-12T06:26:48.296Z,98.22
2018-04-12T06:27:48.219Z,98.41
2018-04-12T06:28:48.148Z,98.41
2018-04-12T06:29:48.074Z,98.31
2018-04-12T06:30:47.980Z,98.22
2018-04-12T06:31:47.960Z,98.50
2018-04-12T06:32:47.826Z,98.41
2018-04-12T06:33:47.805Z,98.60
2018-04-12T06:34:47.673Z,98.60
2018-04-12T06:35:47.594Z,98.12
2018-04-12T06:36:47.641Z,97.93
2018-04-12T06:37:47.436Z,97.93
2018-04-12T06:38:47.378Z,97.36
2018-04-12T06:39:47.437Z,98.03
2018-04-12T06:40:47.197Z,97.93
2018-04-12T06:41:47.127Z,98.17
2018-04-12T06:42:47.058Z,97.98
2018-04-12T06:43:46.967Z,98.08
2018-04-12T06:44:46.889Z,98.17
2018-04-12T06:45:46.835Z,97.79
2018-04-12T06:46:46.800Z,98.17
2018-04-12T06:47:46.657Z,97.79
2018-04-12T06:48:46.574Z,97.98
2018-04-12T06:49:46.544Z,97.79
2018-04-12T06:50:46.418Z,97.60
2018-04-12T06:51:46.342Z,97.88
2018-04-12T06:52:46.264Z,97.50
2018-04-12T06:53:46.233Z,98.17
2018-04-12T06:54:46.105Z,98.46
2018-04-12T06:55:46.026Z,98.46
2018-04-12T06:56:45.973Z,97.98
2018-04-12T06:57:45.872Z,98.17
2018-04-12T06:58:45.806Z,97.69
2018-04-12T06:59:45.715Z,97.69
2018-04-12T07:00:45.638Z,97.88
2018-04-12T07:01:45.560Z,97.50
2018-04-12T07:02:45.530Z,97.88
2018-04-12T07:03:45.400Z,97.41
2018-04-12T07:04:45.327Z,97.22
2018-04-12T07:05:45.259Z,96.94
2018-04-12T07:06:45.170Z,97.27
2018-04-12T07:07:45.094Z,95.65
2018-04-12T07:08:45.015Z,95.65
2018-04-12T07:09:44.939Z,96.12
2018-04-12T07:10:44.859Z,96.31
2018-04-12T07:11:44.782Z,96.22
2018-04-12T07:12:44.705Z,95.70
2018-04-12T07:13:44.634Z,95.65
2018-04-12T07:14:44.548Z,96.03
2018-04-12T07:15:44.466Z,95.46
2018-04-12T07:16:44.392Z,95.08
2018-04-12T07:17:44.326Z,94.79
2018-04-12T07:18:44.237Z,94.60
2018-04-12T07:19:44.158Z,95.17
2018-04-12T07:20:44.082Z,95.08
2018-04-12T07:21:43.996Z,94.98
2018-04-12T07:22:43.927Z,94.79
2018-04-12T07:23:43.846Z,94.03
2018-04-12T07:24:43.770Z,93.94
2018-04-12T07:25:43.696Z,93.94
2018-04-12T07:26:43.613Z,94.60
2018-04-12T07:27:43.537Z,94.65
2018-04-12T07:28:43.472Z,93.37
2018-04-12T07:29:43.383Z,92.94
2018-04-12T07:30:43.303Z,93.55
2018-04-12T07:31:43.228Z,93.51
2018-04-12T07:32:43.151Z,93.03
2018-04-12T07:33:43.074Z,92.84
2018-04-12T07:34:42.997Z,92.46
2018-04-12T07:35:42.919Z,92.08
2018-04-12T07:36:42.843Z,92.36
2018-04-12T07:37:42.764Z,91.41
2018-04-12T07:38:42.688Z,91.22
2018-04-12T07:39:42.608Z,91.22
2018-04-12T07:40:42.534Z,90.79
2018-04-12T07:41:42.455Z,90.31
2018-04-12T07:42:42.377Z,90.31
2018-04-12T07:43:42.315Z,89.65
2018-04-12T07:44:42.228Z,89.84
2018-04-12T07:45:42.195Z,90.22
2018-04-12T07:46:42.070Z,89.94
2018-04-12T07:47:42.012Z,88.89
2018-04-12T07:48:41.918Z,88.93
2018-04-12T07:49:41.863Z,88.55
2018-04-12T07:50:41.782Z,88.74
2018-04-12T07:51:41.688Z,88.84
2018-04-12T07:52:41.610Z,89.69
2018-04-12T07:53:41.535Z,88.64
2018-04-12T07:54:41.461Z,89.31
2018-04-12T07:55:41.430Z,89.60
2018-04-12T07:56:41.324Z,88.55
2018-04-12T07:57:41.229Z,88.55
2018-04-12T07:58:41.153Z,88.74
2018-04-12T07:59:41.078Z,88.64
2018-04-12T08:00:40.995Z,88.45
2018-04-12T08:01:40.925Z,88.84
2018-04-12T08:02:40.850Z,88.07
2018-04-12T08:03:40.773Z,87.45
2018-04-12T08:04:40.697Z,87.35
2018-04-12T08:05:40.620Z,86.88
2018-04-12T08:06:40.541Z,86.11
2018-04-12T08:07:40.466Z,85.64
2018-04-12T08:08:40.389Z,84.78
2018-04-12T08:09:40.368Z,85.54
2018-04-12T08:10:40.236Z,84.92
2018-04-12T08:11:40.162Z,85.49
2018-04-12T08:12:40.099Z,85.11
2018-04-12T08:13:40.047Z,84.72
2018-04-12T08:14:39.932Z,84.06
2018-04-12T08:15:39.859Z,84.39
2018-04-12T08:16:39.791Z,83.53
2018-04-12T08:17:39.708Z,83.14
2018-04-12T08:18:39.629Z,82.71
2018-04-12T08:19:39.599Z,81.13
2018-04-12T08:20:39.482Z,80.21
2018-04-12T08:21:39.406Z,78.34
2018-04-12T08:22:39.330Z,76.81
2018-04-12T08:23:39.254Z,74.77
2018-04-12T08:24:39.178Z,72.32
2018-04-12T08:25:39.198Z,69.68
2018-04-12T08:26:39.120Z,68.37
2018-04-12T08:27:38.974Z,68.46
2018-04-12T08:28:38.937Z,68.46
2018-04-12T08:29:38.808Z,67.79
2018-04-12T08:30:38.734Z,67.85
2018-04-12T08:31:38.658Z,67.66
2018-04-12T08:32:38.676Z,67.66
2018-04-12T08:33:38.514Z,69.26
2018-04-12T08:34:38.452Z,68.97
2018-04-12T08:35:38.364Z,70.47
2018-04-12T08:36:38.293Z,71.23
2018-04-12T08:37:38.220Z,72.00
2018-04-12T08:38:38.151Z,72.96
2018-04-12T08:39:38.086Z,71.91
2018-04-12T08:40:38.003Z,73.21
2018-04-12T08:41:37.928Z,73.40
2018-04-12T08:42:37.883Z,74.26
2018-04-12T08:43:37.784Z,74.36
2018-04-12T08:44:37.711Z,73.21
2018-04-12T08:45:37.634Z,73.15
2018-04-12T08:46:37.562Z,71.91
2018-04-12T08:47:37.487Z,73.05
2018-04-12T08:48:37.413Z,72.38
2018-04-12T08:49:37.341Z,72.48
2018-04-12T08:50:37.267Z,72.86
2018-04-12T08:51:37.195Z,72.96
2018-04-12T08:52:37.183Z,72.86
2018-04-12T08:53:37.048Z,73.34
2018-04-12T08:54:37.049Z,72.13
2018-04-12T08:55:36.900Z,71.17
2018-04-12T08:56:36.881Z,69.77
2018-04-12T08:57:36.763Z,68.85
2018-04-12T08:58:36.683Z,68.27
2018-04-12T08:59:36.608Z,68.21
2018-04-12T09:00:36.541Z,67.16
2018-04-12T09:01:36.464Z,67.63
2018-04-12T09:02:36.389Z,67.09
2018-04-12T09:03:36.327Z,65.65
2018-04-12T09:04:36.245Z,65.56
2018-04-12T09:05:36.173Z,66.23
2018-04-12T09:06:36.100Z,66.67
2018-04-12T09:07:36.030Z,67.16
2018-04-12T09:08:35.956Z,67.89
2018-04-12T09:09:35.897Z,67.35
2018-04-12T09:10:35.811Z,66.80
2018-04-12T09:11:35.743Z,64.72
2018-04-12T09:12:35.667Z,63.22
2018-04-12T09:13:35.596Z,62.81
2018-04-12T09:14:35.521Z,63.25
2018-04-12T09:15:35.453Z,64.59
2018-04-12T09:16:35.380Z,64.34
2018-04-12T09:17:35.310Z,64.69
2018-04-12T09:18:35.261Z,65.56
2018-04-12T09:19:35.173Z,64.53
2018-04-12T09:20:35.096Z,63.79
2018-04-12T09:21:35.027Z,60.88
2018-04-12T09:22:35.028Z,58.72
2018-04-12T09:23:34.884Z,55.82
2018-04-12T09:24:34.812Z,53.66
2018-04-12T09:25:34.743Z,50.43
2018-04-12T09:26:34.685Z,48.61
2018-04-12T09:27:34.603Z,47.00
2018-04-12T09:28:34.533Z,46.05
2018-04-12T09:29:34.463Z,44.72
2018-04-12T09:30:34.394Z,43.17
2018-04-12T09:31:34.327Z,43.68
2018-04-12T09:32:34.258Z,43.58
2018-04-12T09:33:34.193Z,42.63
2018-04-12T09:34:34.123Z,41.83
2018-04-12T09:35:34.061Z,41.66
2018-04-12T09:36:33.999Z,42.08
2018-04-12T09:37:33.923Z,44.56
2018-04-12T09:38:33.858Z,44.67
2018-04-12T09:39:33.793Z,46.15
2018-04-12T09:40:33.764Z,44.09
2018-04-12T09:41:33.675Z,44.57
2018-04-12T09:42:33.605Z,44.84
2018-04-12T09:43:33.530Z,45.74
2018-04-12T09:44:33.463Z,44.96
2018-04-12T09:45:33.398Z,44.38
2018-04-12T09:46:33.334Z,45.76
2018-04-12T09:47:33.265Z,44.13
2018-04-12T09:48:33.243Z,43.85
2018-04-12T09:49:33.136Z,43.55
2018-04-12T09:50:33.070Z,44.38
2018-04-12T09:51:33.004Z,45.69
2018-04-12T09:52:32.937Z,48.93
2018-04-12T09:53:32.872Z,49.34
2018-04-12T09:54:32.806Z,48.44
2018-04-12T09:55:32.746Z,49.70
2018-04-12T09:56:32.674Z,49.05
2018-04-12T09:57:32.608Z,48.37
2018-04-12T09:58:32.540Z,47.31
2018-04-12T09:59:32.476Z,48.47
2018-04-12T10:00:32.408Z,50.78
2018-04-12T10:01:32.340Z,52.52
2018-04-12T10:02:32.279Z,52.67
2018-04-12T10:03:32.209Z,51.22
2018-04-12T10:04:32.141Z,50.35
2018-04-12T10:05:32.073Z,50.96
2018-04-12T10:06:32.008Z,50.16
2018-04-12T10:07:31.941Z,50.38
2018-04-12T10:08:31.874Z,50.18
2018-04-12T10:09:31.805Z,50.16
2018-04-12T10:10:31.738Z,51.39
2018-04-12T10:11:31.736Z,52.47
2018-04-12T10:12:31.601Z,51.12
2018-04-12T10:13:31.535Z,51.12
2018-04-12T10:14:31.467Z,51.32
2018-04-12T10:15:31.400Z,50.35
2018-04-12T10:16:31.333Z,50.93
2018-04-12T10:17:31.265Z,52.16
2018-04-12T10:18:31.265Z,52.52
2018-04-12T10:19:31.137Z,53.31
2018-04-12T10:20:31.064Z,54.09
2018-04-12T10:21:30.996Z,53.61
2018-04-12T10:22:30.923Z,53.29
2018-04-12T10:23:30.854Z,53.09
2018-04-12T10:24:30.790Z,53.45
2018-04-12T10:25:30.763Z,53.87
2018-04-12T10:26:30.653Z,53.09
2018-04-12T10:27:30.587Z,53.51
2018-04-12T10:28:30.572Z,52.67
2018-04-12T10:29:30.446Z,51.70
2018-04-12T10:30:30.373Z,51.34
2018-04-12T10:31:30.307Z,51.12
2018-04-12T10:32:30.237Z,51.80
2018-04-12T10:33:30.176Z,52.28
2018-04-12T10:34:30.100Z,52.19
2018-04-12T10:35:30.033Z,51.99
2018-04-12T10:36:29.965Z,51.70
2018-04-12T10:37:29.897Z,51.61
2018-04-12T10:38:29.823Z,51.89
2018-04-12T10:39:29.764Z,51.22
2018-04-12T10:40:29.698Z,51.41
2018-04-12T10:41:29.656Z,51.99
2018-04-12T10:42:29.550Z,51.97
2018-04-12T10:43:29.482Z,52.86
2018-04-12T10:44:29.413Z,52.73
2018-04-12T10:45:29.344Z,52.95
2018-04-12T10:46:29.274Z,53.05
2018-04-12T10:47:29.201Z,52.59
2018-04-12T10:48:29.137Z,52.79
2018-04-12T10:49:29.070Z,51.65
2018-04-12T10:50:29.004Z,50.50
2018-04-12T10:51:28.930Z,51.20
2018-04-12T10:52:28.863Z,49.58
2018-04-12T10:53:28.796Z,48.42
2018-04-12T10:54:28.727Z,47.77
2018-04-12T10:55:28.666Z,47.09
2018-04-12T10:56:28.599Z,46.15
2018-04-12T10:57:28.518Z,45.86
2018-04-12T10:58:28.480Z,46.61
2018-04-12T10:59:28.380Z,46.88
2018-04-12T11:00:28.319Z,47.74
2018-04-12T11:01:28.245Z,46.88
2018-04-12T11:02:28.176Z,47.05
2018-04-12T11:03:28.131Z,47.07
2018-04-12T11:04:28.045Z,46.49
2018-04-12T11:05:27.974Z,46.22
2018-04-12T11:06:27.899Z,45.28
2018-04-12T11:07:27.838Z,45.76
2018-04-12T11:08:27.770Z,45.98
2018-04-12T11:09:27.703Z,43.41
2018-04-12T11:10:27.632Z,43.04
2018-04-12T11:11:27.568Z,42.29
2018-04-12T11:12:27.501Z,40.61
2018-04-12T11:13:27.433Z,41.80
2018-04-12T11:14:27.370Z,43.35
2018-04-12T11:15:27.301Z,42.38
2018-04-12T11:16:27.234Z,41.02
2018-04-12T11:17:27.170Z,42.48
2018-04-12T11:18:27.183Z,42.36
2018-04-12T11:19:27.036Z,41.22
2018-04-12T11:20:26.973Z,41.49
2018-04-12T11:21:26.903Z,43.35
2018-04-12T11:22:26.839Z,41.80
2018-04-12T11:23:26.812Z,40.92
2018-04-12T11:24:26.738Z,42.36
2018-04-12T11:25:26.643Z,42.65
2018-04-12T11:26:26.589Z,40.85
2018-04-12T11:27:26.508Z,40.39
2018-04-12T11:28:26.449Z,39.41
2018-04-12T11:29:26.381Z,38.62
2018-04-12T11:30:26.309Z,40.56
2018-04-12T11:31:26.260Z,40.92
2018-04-12T11:32:26.183Z,42.48
2018-04-12T11:33:26.121Z,41.89
2018-04-12T11:34:26.067Z,41.12
2018-04-12T11:35:25.992Z,41.02
2018-04-12T11:36:25.938Z,40.52
2018-04-12T11:37:25.873Z,40.83
2018-04-12T11:38:25.798Z,40.71
2018-04-12T11:39:25.764Z,41.08
2018-04-12T11:40:25.679Z,41.00
2018-04-12T11:41:25.600Z,41.97
2018-04-12T11:42:25.544Z,40.92
2018-04-12T11:43:25.475Z,41.26
2018-04-12T11:44:25.408Z,39.45
2018-04-12T11:45:25.345Z,37.70
2018-04-12T11:46:25.290Z,37.12
2018-04-12T11:47:25.247Z,37.55
2018-04-12T11:48:25.148Z,40.54
2018-04-12T11:49:25.086Z,40.81
2018-04-12T11:50:25.022Z,42.65
2018-04-12T11:51:25.003Z,41.20
2018-04-12T11:52:24.896Z,42.38
2018-04-12T11:53:24.832Z,41.33
2018-04-12T11:54:24.767Z,40.00
2018-04-12T11:55:24.733Z,39.53
2018-04-12T11:56:24.639Z,38.27
2018-04-12T11:57:24.570Z,38.15
2018-04-12T11:58:24.507Z,38.91
2018-04-12T11:59:24.523Z,39.59
2018-04-12T12:00:24.378Z,40.56
2018-04-12T12:01:24.322Z,39.67
2018-04-12T12:02:24.291Z,40.75
2018-04-12T12:03:24.179Z,40.56
2018-04-12T12:04:24.119Z,41.02
2018-04-12T12:05:24.048Z,40.91
2018-04-12T12:06:23.985Z,41.68
2018-04-12T12:07:23.917Z,41.00
2018-04-12T12:08:23.855Z,41.20
2018-04-12T12:09:23.789Z,40.81
2018-04-12T12:10:23.721Z,41.33
2018-04-12T12:11:23.659Z,40.25
2018-04-12T12:12:23.595Z,41.02
2018-04-12T12:13:23.524Z,42.22
2018-04-12T12:14:23.485Z,43.58
2018-04-12T12:15:23.428Z,43.02
2018-04-12T12:16:23.329Z,42.94
2018-04-12T12:17:23.261Z,40.92
2018-04-12T12:18:23.224Z,42.19
2018-04-12T12:19:23.129Z,40.81
2018-04-12T12:20:23.077Z,42.36
2018-04-12T12:21:22.997Z,43.33
2018-04-12T12:22:22.931Z,43.26
2018-04-12T12:23:22.865Z,43.10
2018-04-12T12:24:22.808Z,42.25
2018-04-12T12:25:22.738Z,40.81
2018-04-12T12:26:22.669Z,39.69
2018-04-12T12:27:22.604Z,37.06
2018-04-12T12:28:22.613Z,36.87
2018-04-12T12:29:22.473Z,38.62
2018-04-12T12:30:22.412Z,36.87
2018-04-12T12:31:22.338Z,36.96
2018-04-12T12:32:22.276Z,36.85
2018-04-12T12:33:22.212Z,36.44
2018-04-12T12:34:22.145Z,37.68
2018-04-12T12:35:22.126Z,37.68
2018-04-12T12:36:22.019Z,38.77
2018-04-12T12:37:21.949Z,38.79
2018-04-12T12:38:21.924Z,37.02
2018-04-12T12:39:21.818Z,36.65
2018-04-12T12:40:21.752Z,37.24
2018-04-12T12:41:21.699Z,36.73
2018-04-12T12:42:21.620Z,37.78
2018-04-12T12:43:21.557Z,37.39
2018-04-12T12:44:21.491Z,38.25
2018-04-12T12:45:21.426Z,38.83
2018-04-12T12:46:21.362Z,38.83
2018-04-12T12:47:21.298Z,38.56
2018-04-12T12:48:21.236Z,38.95
2018-04-12T12:49:21.168Z,39.45
2018-04-12T12:50:21.101Z,37.80
2018-04-12T12:51:21.039Z,37.99